Time;durP1;ratioP1;P1;durP2;ratioP2;P2;SDS_P1;SDS_P2;PMS_P1;PMS_P2;Temp;Humidity;BMP_temperature;BMP_pressure;BME280_temperature;BME280_humidity;BME280_pressure;Samples;Min_cycle;Max_cycle;Signal;HPM_P1;HPM_P2
2023/06/09 00:00:17;;;;;;;13.57;12.27;;;;;;;15.68;71.96;100834.72;4990460;28;20560;-72
2023/06/09 00:02:47;;;;;;;13.10;11.80;;;;;;;15.62;72.16;100839.56;4982036;28;20700;-71
2023/06/09 00:05:15;;;;;;;14.63;11.60;;;;;;;15.58;72.12;100833.38;4983273;28;20211;-71
2023/06/09 00:07:42;;;;;;;14.73;13.07;;;;;;;15.54;71.99;100840.56;4995531;28;20201;-71
2023/06/09 00:10:09;;;;;;;14.13;12.23;;;;;;;15.50;72.10;100841.59;4986908;28;20302;-72
2023/06/09 00:12:36;;;;;;;14.03;12.63;;;;;;;15.45;72.30;100840.00;4990308;28;20231;-71
2023/06/09 00:15:02;;;;;;;13.53;12.23;;;;;;;15.41;72.32;100839.16;4986439;28;20394;-71
2023/06/09 00:17:29;;;;;;;14.57;13.07;;;;;;;15.38;73.01;100845.16;4988986;28;20743;-72
2023/06/09 00:20:02;;;;;;;13.27;11.70;;;;;;;15.34;72.59;100843.56;4990175;28;20201;-71
2023/06/09 00:22:28;;;;;;;14.20;12.80;;;;;;;15.31;73.04;100845.00;4989448;28;20282;-72
2023/06/09 00:24:55;;;;;;;14.20;12.80;;;;;;;15.28;73.05;100840.41;4992407;28;20205;-72
2023/06/09 00:27:21;;;;;;;13.57;12.13;;;;;;;15.25;72.93;100840.31;4990145;28;20565;-72
2023/06/09 00:29:48;;;;;;;13.13;11.83;;;;;;;15.21;72.95;100844.81;4987777;28;20213;-72
2023/06/09 00:32:14;;;;;;;13.70;12.40;;;;;;;15.19;73.80;100836.38;4986762;28;20568;-71
2023/06/09 00:34:41;;;;;;;14.57;12.97;;;;;;;15.16;73.37;100834.44;4978070;28;20198;-71
2023/06/09 00:37:10;;;;;;;14.47;12.77;;;;;;;15.14;74.36;100836.66;4986245;28;20620;-72
2023/06/09 00:39:36;;;;;;;14.33;12.73;;;;;;;15.12;74.09;100826.34;4987738;28;20224;-72
2023/06/09 00:42:05;;;;;;;13.27;11.93;;;;;;;15.11;74.19;100824.81;4990521;28;20450;-71
2023/06/09 00:44:31;;;;;;;14.03;12.73;;;;;;;15.11;74.65;100824.06;4988333;28;20704;-71
2023/06/09 00:46:57;;;;;;;14.67;12.80;;;;;;;15.09;75.06;100824.41;4992670;28;20681;-71
2023/06/09 00:49:24;;;;;;;14.37;12.97;;;;;;;15.09;74.65;100823.63;4995503;28;20209;-71
2023/06/09 00:51:50;;;;;;;14.37;12.87;;;;;;;15.08;74.75;100828.19;4993580;28;20193;-71
2023/06/09 00:54:20;;;;;;;13.10;11.70;;;;;;;15.06;74.68;100833.09;4985901;28;20303;-71
2023/06/09 00:56:47;;;;;;;13.67;12.37;;;;;;;15.04;73.92;100824.69;4990003;28;20567;-73
2023/06/09 00:59:16;;;;;;;12.97;11.77;;;;;;;15.02;74.46;100823.50;4993617;28;20579;-71
2023/06/09 01:01:43;;;;;;;13.13;11.93;;;;;;;14.99;74.18;100830.28;4990935;28;20855;-71
2023/06/09 01:04:09;;;;;;;13.13;11.83;;;;;;;14.97;74.43;100829.09;4991145;28;20225;-71
2023/06/09 01:06:45;;;;;;;13.97;12.67;;;;;;;14.94;75.03;100819.91;4992004;28;20201;-72
2023/06/09 01:09:25;;;;;;;13.37;12.17;;;;;;;14.90;75.18;100824.38;4989226;28;20316;-71
2023/06/09 01:11:56;;;;;;;14.83;13.30;;;;;;;14.87;74.93;100830.41;4981873;28;20205;-72
2023/06/09 01:14:27;;;;;;;13.37;12.07;;;;;;;14.83;74.55;100826.91;4991227;28;20226;-72
2023/06/09 01:17:01;;;;;;;13.50;12.17;;;;;;;14.78;74.70;100824.50;4992828;28;20200;-71
2023/06/09 01:19:32;;;;;;;13.40;12.10;;;;;;;14.76;74.87;100818.75;4991382;28;20223;-72
2023/06/09 01:22:02;;;;;;;13.57;12.20;;;;;;;14.72;75.23;100819.81;4987372;28;20210;-71
2023/06/09 01:24:39;;;;;;;14.03;12.73;;;;;;;14.68;75.36;100818.94;4990254;28;20201;-72
2023/06/09 01:27:08;;;;;;;14.43;13.03;;;;;;;14.63;75.07;100814.69;4992952;28;20193;-71
2023/06/09 01:29:40;;;;;;;14.20;11.57;;;;;;;14.62;75.39;100825.66;4991564;28;20217;-72
2023/06/09 01:32:08;;;;;;;14.47;12.43;;;;;;;14.58;75.43;100827.44;4991645;28;20232;-72
2023/06/09 01:34:35;;;;;;;13.27;12.07;;;;;;;14.55;75.61;100825.50;4993650;28;20211;-72
2023/06/09 01:37:02;;;;;;;14.30;13.00;;;;;;;14.51;75.86;100816.69;4991193;28;20571;-72
2023/06/09 01:39:29;;;;;;;14.20;12.80;;;;;;;14.48;75.84;100823.44;4995060;28;20197;-72
2023/06/09 01:41:55;;;;;;;14.23;12.83;;;;;;;14.46;75.61;100815.06;4977167;28;20217;-72
2023/06/09 01:44:24;;;;;;;14.27;11.97;;;;;;;14.43;75.86;100804.34;4991656;28;20236;-72
2023/06/09 01:46:50;;;;;;;14.50;13.10;;;;;;;14.41;76.43;100815.31;4991950;28;20192;-71
2023/06/09 01:49:22;;;;;;;13.70;12.37;;;;;;;14.37;76.29;100817.13;4983696;28;20208;-72
2023/06/09 01:51:53;;;;;;;15.20;13.67;;;;;;;14.34;76.05;100823.09;4990063;28;20298;-72
2023/06/09 01:54:24;;;;;;;15.10;13.60;;;;;;;14.32;76.67;100811.28;4992991;28;20224;-71
2023/06/09 01:56:58;;;;;;;14.60;13.20;;;;;;;14.27;75.86;100814.19;4993081;28;20662;-71
2023/06/09 01:59:31;;;;;;;14.00;12.40;;;;;;;14.23;76.28;100816.03;4985992;28;20204;-72
2023/06/09 02:02:02;;;;;;;14.33;12.93;;;;;;;14.20;76.55;100820.13;4976877;28;20199;-71
2023/06/09 02:04:30;;;;;;;13.50;12.20;;;;;;;14.16;76.25;100819.25;4983545;28;20751;-71
2023/06/09 02:06:57;;;;;;;14.07;12.60;;;;;;;14.13;77.06;100816.50;4991251;28;20462;-74
2023/06/09 02:09:24;;;;;;;13.73;12.00;;;;;;;14.10;77.04;100820.63;4990533;28;20207;-72
2023/06/09 02:11:52;;;;;;;15.33;13.83;;;;;;;14.07;77.47;100815.97;4990148;28;20289;-72
2023/06/09 02:14:18;;;;;;;14.80;13.40;;;;;;;14.05;77.49;100820.09;4990706;28;20223;-72
2023/06/09 02:16:47;;;;;;;13.30;12.10;;;;;;;14.03;77.54;100817.03;4982879;28;20781;-71
2023/06/09 02:19:13;;;;;;;14.60;13.10;;;;;;;14.01;77.75;100811.25;4988929;28;20209;-72
2023/06/09 02:21:40;;;;;;;13.57;12.27;;;;;;;14.01;77.49;100812.03;4988853;28;20647;-73
2023/06/09 02:24:06;;;;;;;13.87;12.57;;;;;;;13.99;77.21;100821.47;4980322;28;20227;-71
2023/06/09 02:26:34;;;;;;;13.50;12.20;;;;;;;13.98;77.88;100817.28;4991931;28;20230;-72
2023/06/09 02:29:01;;;;;;;14.00;12.70;;;;;;;13.94;77.75;100811.88;4989869;28;20202;-71
2023/06/09 02:31:31;;;;;;;13.77;12.47;;;;;;;13.94;77.77;100819.84;4990403;28;20230;-71
2023/06/09 02:33:58;;;;;;;14.50;13.10;;;;;;;13.92;78.08;100823.94;4991652;28;20553;-71
2023/06/09 02:36:26;;;;;;;15.10;13.70;;;;;;;13.90;77.63;100815.53;4993075;28;20214;-72
2023/06/09 02:38:53;;;;;;;14.80;13.13;;;;;;;13.89;77.98;100814.78;4990525;28;20214;-71
2023/06/09 02:41:20;;;;;;;14.47;13.10;;;;;;;13.87;78.16;100819.66;4990325;28;20228;-71
2023/06/09 02:43:46;;;;;;;14.23;12.97;;;;;;;13.86;78.13;100822.63;4991662;28;20226;-72
2023/06/09 02:46:13;;;;;;;14.63;13.20;;;;;;;13.84;77.75;100816.91;5000524;28;20206;-72
2023/06/09 02:48:40;;;;;;;14.60;13.20;;;;;;;13.82;78.13;100821.78;4989062;28;20219;-72
2023/06/09 02:51:08;;;;;;;14.03;12.73;;;;;;;13.81;78.01;100825.56;4990216;28;20240;-72
2023/06/09 02:53:34;;;;;;;13.10;11.80;;;;;;;13.80;78.21;100818.69;4988283;28;20234;-72
2023/06/09 02:56:02;;;;;;;14.50;13.10;;;;;;;13.79;78.43;100817.16;4986421;28;20210;-71
2023/06/09 02:58:38;;;;;;;14.80;13.20;;;;;;;13.75;78.00;100817.06;4982839;28;20198;-71
2023/06/09 03:01:04;;;;;;;15.47;14.03;;;;;;;13.75;78.33;100813.63;4990892;28;20224;-72
2023/06/09 03:03:31;;;;;;;14.50;13.00;;;;;;;13.74;78.58;100820.84;4991072;28;20248;-71
2023/06/09 03:05:58;;;;;;;15.47;13.93;;;;;;;13.73;78.06;100816.66;4989568;28;20680;-72
2023/06/09 03:08:27;;;;;;;15.73;14.23;;;;;;;13.73;78.50;100815.88;4989499;28;20208;-72
2023/06/09 03:10:54;;;;;;;15.00;13.60;;;;;;;13.72;78.98;100819.63;4997846;28;20215;-71
2023/06/09 03:13:21;;;;;;;14.20;12.87;;;;;;;13.71;78.59;100832.13;4986479;28;20223;-73
2023/06/09 03:15:51;;;;;;;16.10;14.60;;;;;;;13.71;78.88;100826.06;4980768;28;20202;-72
2023/06/09 03:18:19;;;;;;;14.83;13.27;;;;;;;13.72;79.16;100828.34;5001934;28;20222;-72
2023/06/09 03:20:47;;;;;;;14.53;13.13;;;;;;;13.73;79.18;100829.91;4990284;28;20225;-71
2023/06/09 03:23:13;;;;;;;14.47;13.07;;;;;;;13.73;79.04;100834.44;4990704;28;20229;-72
2023/06/09 03:25:43;;;;;;;15.23;13.67;;;;;;;13.75;79.07;100834.88;4994584;28;20206;-72
2023/06/09 03:28:13;;;;;;;15.10;13.63;;;;;;;13.75;79.15;100837.53;4989290;28;20203;-72
2023/06/09 03:30:40;;;;;;;14.93;13.50;;;;;;;13.77;79.52;100838.72;4986381;28;20221;-72
2023/06/09 03:33:08;;;;;;;14.43;13.03;;;;;;;13.82;79.74;100837.72;4982929;28;20232;-72
2023/06/09 03:35:35;;;;;;;14.13;12.73;;;;;;;13.84;79.20;100838.94;4994038;28;20252;-72
2023/06/09 03:38:02;;;;;;;14.63;13.33;;;;;;;13.88;79.44;100853.03;5006019;28;20199;-72
2023/06/09 03:40:28;;;;;;;14.43;13.03;;;;;;;13.93;79.36;100846.72;4994944;28;20216;-73
2023/06/09 03:42:56;;;;;;;14.40;13.10;;;;;;;13.96;79.53;100848.69;4996920;28;20226;-73
2023/06/09 03:45:22;;;;;;;14.50;13.10;;;;;;;13.99;79.05;100843.50;4985740;28;20194;-72
2023/06/09 03:47:49;;;;;;;18.53;13.47;;;;;;;14.03;79.17;100854.94;4988122;28;20231;-71
2023/06/09 03:50:15;;;;;;;14.17;12.63;;;;;;;14.08;78.62;100857.34;4980946;28;20270;-72
2023/06/09 03:52:42;;;;;;;15.30;12.73;;;;;;;14.11;78.27;100859.34;4983081;28;20255;-72
2023/06/09 03:55:09;;;;;;;14.07;12.57;;;;;;;14.16;78.07;100861.75;4985082;28;20301;-72
2023/06/09 03:57:37;;;;;;;13.43;12.00;;;;;;;14.21;77.84;100860.72;4988116;28;20203;-73
2023/06/09 04:00:08;;;;;;;14.37;12.60;;;;;;;14.26;77.80;100868.44;4986381;28;20203;-71
2023/06/09 04:02:42;;;;;;;13.50;12.20;;;;;;;14.30;77.16;100867.44;4990108;28;20224;-72
2023/06/09 04:05:09;;;;;;;14.13;12.67;;;;;;;14.39;77.30;100867.25;4988871;28;20212;-72
2023/06/09 04:07:36;;;;;;;13.73;12.33;;;;;;;14.44;77.26;100878.38;4988083;28;20467;-72
2023/06/09 04:10:03;;;;;;;13.57;12.27;;;;;;;14.49;76.89;100872.81;4999200;28;20222;-72
2023/06/09 04:12:30;;;;;;;12.87;11.23;;;;;;;14.56;76.49;100872.22;5000920;28;20224;-72
2023/06/09 04:14:56;;;;;;;12.40;11.30;;;;;;;14.61;76.88;100875.41;4988476;28;20201;-72
2023/06/09 04:17:24;;;;;;;12.13;10.93;;;;;;;14.66;76.58;100877.78;4989457;28;20197;-72
2023/06/09 04:19:54;;;;;;;12.00;10.90;;;;;;;14.73;76.71;100877.16;4991435;28;20254;-72
2023/06/09 04:22:20;;;;;;;15.40;11.73;;;;;;;14.79;77.11;100875.78;4990042;28;20237;-73
2023/06/09 04:24:47;;;;;;;12.97;11.73;;;;;;;14.87;76.80;100885.47;4991740;28;20210;-72
2023/06/09 04:27:15;;;;;;;12.87;11.67;;;;;;;14.94;76.84;100881.09;4992939;28;20228;-72
2023/06/09 04:29:45;;;;;;;13.00;11.77;;;;;;;15.01;76.66;100878.56;4984353;28;20201;-72
2023/06/09 04:32:11;;;;;;;12.13;11.00;;;;;;;15.09;76.10;100874.94;4995204;28;20576;-71
2023/06/09 04:34:39;;;;;;;12.47;11.37;;;;;;;15.19;76.48;100876.28;4993518;28;20216;-72
2023/06/09 04:37:08;;;;;;;11.97;10.87;;;;;;;15.29;75.23;100870.41;4992348;28;20248;-72
2023/06/09 04:39:35;;;;;;;15.30;11.17;;;;;;;15.38;74.91;100866.44;4994974;28;20206;-72
2023/06/09 04:42:04;;;;;;;11.60;10.37;;;;;;;15.51;74.27;100861.75;4991664;28;20567;-71
2023/06/09 04:44:32;;;;;;;12.93;10.93;;;;;;;15.61;74.37;100875.28;4985687;28;20201;-71
2023/06/09 04:46:59;;;;;;;10.60;9.60;;;;;;;15.70;73.62;100869.75;4996705;28;20361;-72
2023/06/09 04:49:28;;;;;;;10.73;9.63;;;;;;;15.79;72.35;100868.38;4991629;28;20215;-72
2023/06/09 04:51:56;;;;;;;10.23;9.20;;;;;;;15.87;72.10;100874.63;4985573;28;20591;-72
2023/06/09 04:54:28;;;;;;;10.40;9.40;;;;;;;15.94;72.41;100880.09;4988063;28;20203;-72
2023/06/09 04:56:58;;;;;;;10.70;9.60;;;;;;;16.02;71.47;100879.06;4986789;28;20849;-73
2023/06/09 04:59:28;;;;;;;10.73;9.27;;;;;;;16.07;71.10;100884.13;4995274;28;20282;-72
2023/06/09 05:01:55;;;;;;;9.53;7.97;;;;;;;16.11;71.16;100884.94;4990140;28;20666;-72
2023/06/09 05:04:22;;;;;;;8.90;7.97;;;;;;;16.14;69.79;100884.25;4991036;28;20835;-72
2023/06/09 05:06:48;;;;;;;8.30;7.50;;;;;;;16.16;69.03;100882.78;4991213;28;20295;-72
2023/06/09 05:09:16;;;;;;;9.23;7.70;;;;;;;16.18;69.71;100883.19;4991521;28;20263;-73
2023/06/09 05:11:42;;;;;;;8.37;7.53;;;;;;;16.20;68.43;100883.59;4991367;28;20676;-71
2023/06/09 05:14:10;;;;;;;8.23;7.33;;;;;;;16.22;68.29;100888.56;4996065;28;20619;-72
2023/06/09 05:16:37;;;;;;;8.13;7.30;;;;;;;16.23;67.75;100888.22;4989818;28;20207;-73
2023/06/09 05:19:06;;;;;;;8.67;7.57;;;;;;;16.25;68.08;100898.53;4999192;28;20436;-71
2023/06/09 05:21:34;;;;;;;9.57;8.60;;;;;;;16.29;68.62;100892.13;4986809;28;20204;-73
2023/06/09 05:24:01;;;;;;;8.43;7.60;;;;;;;16.32;68.31;100894.09;4991857;28;20220;-72
2023/06/09 05:26:29;;;;;;;8.57;7.70;;;;;;;16.35;68.10;100903.25;4990621;28;20236;-72
2023/06/09 05:28:56;;;;;;;9.17;7.60;;;;;;;16.39;68.46;100896.88;4994185;28;20189;-72
2023/06/09 05:31:23;;;;;;;9.17;8.00;;;;;;;16.43;67.03;100896.94;4989934;28;20224;-71
2023/06/09 05:33:49;;;;;;;8.30;7.20;;;;;;;16.48;67.69;100902.75;4993917;28;20235;-72
2023/06/09 05:36:16;;;;;;;7.53;6.80;;;;;;;16.53;67.85;100909.66;4991769;28;20238;-72
2023/06/09 05:38:47;;;;;;;10.43;6.00;;;;;;;16.57;67.49;100899.84;4990546;28;20641;-72
2023/06/09 05:41:15;;;;;;;7.27;5.43;;;;;;;16.61;64.81;100906.00;4997189;28;20557;-72
2023/06/09 05:43:43;;;;;;;7.90;5.67;;;;;;;16.64;64.94;100903.38;4992547;28;20232;-72
2023/06/09 05:46:10;;;;;;;9.03;5.60;;;;;;;16.69;65.17;100907.63;4991989;28;20199;-72
2023/06/09 05:48:36;;;;;;;9.63;6.10;;;;;;;16.74;63.85;100907.34;4986358;28;20217;-72
2023/06/09 05:51:03;;;;;;;7.23;5.63;;;;;;;16.78;64.97;100908.94;4991726;28;20304;-72
2023/06/09 05:53:32;;;;;;;7.80;6.13;;;;;;;16.84;64.51;100910.19;4991847;28;20588;-72
2023/06/09 05:55:58;;;;;;;6.70;5.60;;;;;;;16.89;64.16;100915.22;4991176;28;20288;-72
2023/06/09 05:58:27;;;;;;;8.97;5.33;;;;;;;16.94;63.98;100909.56;4992246;28;20212;-72
2023/06/09 06:00:57;;;;;;;6.53;5.67;;;;;;;17.00;63.16;100920.69;4990331;28;20272;-72
2023/06/09 06:03:24;;;;;;;7.30;5.10;;;;;;;17.07;65.16;100926.88;4996567;28;20712;-72
2023/06/09 06:05:51;;;;;;;8.97;5.43;;;;;;;17.12;64.06;100931.91;4990577;28;20215;-73
2023/06/09 06:08:17;;;;;;;9.70;5.03;;;;;;;17.17;62.35;100925.50;4991975;28;20641;-72
2023/06/09 06:10:43;;;;;;;6.07;5.27;;;;;;;17.21;62.89;100929.75;4990522;28;20681;-72
2023/06/09 06:13:13;;;;;;;7.27;5.63;;;;;;;17.26;61.82;100937.47;4991119;28;20226;-73
2023/06/09 06:15:39;;;;;;;6.77;4.90;;;;;;;17.30;59.79;100932.16;4999236;28;20193;-74
2023/06/09 06:18:07;;;;;;;6.03;4.90;;;;;;;17.33;59.47;100942.88;4987701;28;20265;-72
2023/06/09 06:20:33;;;;;;;12.50;5.60;;;;;;;17.39;61.31;100938.03;4997902;28;20212;-72
2023/06/09 06:23:00;;;;;;;7.23;5.33;;;;;;;17.44;60.51;100940.38;4995893;28;20228;-73
2023/06/09 06:25:28;;;;;;;6.27;4.80;;;;;;;17.51;60.43;100943.91;4987300;28;20730;-72
2023/06/09 06:27:56;;;;;;;8.00;5.07;;;;;;;17.58;61.19;100941.34;4986885;28;20668;-72
2023/06/09 06:30:22;;;;;;;8.23;5.33;;;;;;;17.67;60.00;100936.50;4991324;28;20212;-72
2023/06/09 06:32:50;;;;;;;6.57;4.70;;;;;;;17.81;58.74;100933.22;4988565;28;20241;-71
2023/06/09 06:35:23;;;;;;;6.17;5.10;;;;;;;17.96;57.11;100937.56;4987934;28;20256;-71
2023/06/09 06:37:50;;;;;;;6.20;5.07;;;;;;;18.13;59.04;100936.97;4999245;28;20198;-72
2023/06/09 06:40:17;;;;;;;5.70;5.10;;;;;;;18.25;60.39;100932.16;4988583;28;20286;-72
2023/06/09 06:42:43;;;;;;;6.87;5.17;;;;;;;18.39;61.91;100928.84;4990647;28;20228;-72
2023/06/09 06:45:16;;;;;;;9.40;5.43;;;;;;;18.51;61.16;100933.91;4988117;28;20206;-72
2023/06/09 06:47:43;;;;;;;7.03;5.43;;;;;;;18.63;59.35;100936.31;5001818;28;20698;-72
2023/06/09 06:50:10;;;;;;;9.80;5.60;;;;;;;18.76;60.44;100932.22;4990938;28;20672;-72
2023/06/09 06:52:38;;;;;;;6.70;5.00;;;;;;;18.93;54.85;100932.34;4992946;28;20228;-72
2023/06/09 06:55:07;;;;;;;6.60;5.37;;;;;;;19.13;56.06;100935.50;4990254;28;20200;-72
2023/06/09 06:57:33;;;;;;;7.17;5.57;;;;;;;19.31;58.93;100933.75;4990191;28;20208;-73
2023/06/09 07:00:00;;;;;;;11.53;5.63;;;;;;;19.49;56.42;100930.00;4988722;28;20567;-72
2023/06/09 07:02:26;;;;;;;7.57;5.40;;;;;;;19.68;53.22;100931.59;4988110;28;20217;-72
2023/06/09 07:04:53;;;;;;;7.47;6.00;;;;;;;19.85;53.23;100930.88;4987281;28;20206;-72
2023/06/09 07:07:19;;;;;;;8.93;6.37;;;;;;;20.02;54.22;100932.88;4991189;28;20664;-72
2023/06/09 07:09:47;;;;;;;8.80;6.93;;;;;;;20.19;53.54;100934.84;4990864;28;20225;-72
2023/06/09 07:12:13;;;;;;;10.57;6.53;;;;;;;20.34;57.12;100937.16;4987166;28;20206;-72
2023/06/09 07:14:39;;;;;;;8.57;6.70;;;;;;;20.48;51.15;100942.53;4990572;28;20206;-72
2023/06/09 07:17:06;;;;;;;9.63;6.23;;;;;;;20.62;54.28;100936.41;4983051;28;20204;-73
2023/06/09 07:19:35;;;;;;;11.13;6.90;;;;;;;20.73;52.34;100935.25;4990139;28;20216;-72
2023/06/09 07:22:01;;;;;;;8.50;6.30;;;;;;;20.82;50.85;100932.94;4989804;28;20201;-72
2023/06/09 07:24:28;;;;;;;8.50;6.40;;;;;;;20.90;53.07;100937.16;4990943;28;20209;-72
2023/06/09 07:26:55;;;;;;;8.97;6.60;;;;;;;20.96;54.20;100935.63;4988148;28;20336;-73
2023/06/09 07:29:22;;;;;;;8.33;6.30;;;;;;;21.01;51.02;100934.47;4992305;28;20235;-72
2023/06/09 07:31:48;;;;;;;9.03;5.77;;;;;;;21.05;49.47;100925.25;4999340;28;20221;-72
2023/06/09 07:34:14;;;;;;;7.00;6.27;;;;;;;21.07;50.02;100932.94;4996732;28;20231;-72
2023/06/09 07:36:41;;;;;;;9.20;6.90;;;;;;;21.10;53.40;100932.91;4993506;28;20205;-72
2023/06/09 07:39:08;;;;;;;8.77;6.17;;;;;;;21.13;52.70;100931.38;4988461;28;20283;-72
2023/06/09 07:41:37;;;;;;;8.93;6.87;;;;;;;21.16;55.20;100935.97;4988785;28;20284;-75
2023/06/09 07:44:06;;;;;;;6.93;6.23;;;;;;;21.19;52.07;100935.97;4991733;28;20224;-72
2023/06/09 07:46:32;;;;;;;7.50;6.77;;;;;;;21.21;50.71;100927.53;4989408;28;20213;-73
2023/06/09 07:48:59;;;;;;;9.50;7.03;;;;;;;21.25;50.66;100939.00;4989419;28;20575;-72
2023/06/09 07:51:26;;;;;;;8.17;6.63;;;;;;;21.26;50.00;100935.94;4987807;28;20221;-72
2023/06/09 07:53:52;;;;;;;10.53;6.60;;;;;;;21.30;51.86;100936.69;4989257;28;20316;-73
2023/06/09 07:56:19;;;;;;;7.53;6.60;;;;;;;21.34;54.17;100932.09;4987317;28;20218;-73
2023/06/09 07:58:45;;;;;;;8.53;6.60;;;;;;;21.38;54.80;100935.50;4989283;28;20679;-72
2023/06/09 08:01:13;;;;;;;10.13;6.23;;;;;;;21.41;51.21;100932.06;4992678;28;20196;-73
2023/06/09 08:03:40;;;;;;;10.50;6.60;;;;;;;21.45;51.21;100935.50;4991514;28;20274;-72
2023/06/09 08:06:08;;;;;;;8.63;6.17;;;;;;;21.51;52.73;100928.56;4990186;28;20201;-72
2023/06/09 08:08:35;;;;;;;9.33;6.60;;;;;;;21.56;49.06;100936.22;4994071;28;20192;-72
2023/06/09 08:11:02;;;;;;;7.30;6.60;;;;;;;21.64;50.09;100928.91;4990128;28;20667;-72
2023/06/09 08:13:29;;;;;;;8.23;6.57;;;;;;;21.71;47.55;100932.34;4991082;28;20248;-72
2023/06/09 08:15:57;;;;;;;8.33;6.40;;;;;;;21.80;45.80;100931.91;4979798;28;20209;-72
2023/06/09 08:18:25;;;;;;;6.20;5.60;;;;;;;21.90;48.52;100934.56;4992812;28;20204;-72
2023/06/09 08:20:54;;;;;;;7.63;6.30;;;;;;;22.04;50.80;100939.09;4986719;28;20217;-72
2023/06/09 08:23:21;;;;;;;8.77;6.47;;;;;;;22.20;47.06;100929.34;4990835;28;20248;-73
2023/06/09 08:25:47;;;;;;;9.37;6.43;;;;;;;22.33;51.83;100943.88;4988932;28;20627;-73
2023/06/09 08:28:14;;;;;;;7.87;6.37;;;;;;;22.51;45.99;100931.06;4987035;28;20864;-72
2023/06/09 08:30:40;;;;;;;7.65;6.38;;;;;;;22.68;49.45;100934.78;4983847;28;20205;-72
2023/06/09 08:33:07;;;;;;;8.75;6.60;;;;;;;22.86;48.52;100930.03;4988789;28;20740;-72
2023/06/09 08:35:35;;;;;;;7.25;6.15;;;;;;;23.06;47.81;100933.66;4991659;28;20292;-72
2023/06/09 08:38:04;;;;;;;11.73;7.05;;;;;;;23.27;45.47;100916.53;4986011;28;20243;-73
2023/06/09 08:40:30;;;;;;;8.85;6.20;;;;;;;23.42;48.57;100921.34;4984514;28;20201;-73
2023/06/09 08:42:59;;;;;;;7.18;5.88;;;;;;;23.61;46.40;100920.72;4989119;28;20696;-72
2023/06/09 08:45:26;;;;;;;7.32;6.25;;;;;;;23.80;48.90;100923.53;4988811;28;20201;-73
2023/06/09 08:47:55;;;;;;;7.95;6.68;;;;;;;24.02;45.78;100915.94;4991003;28;20205;-73
2023/06/09 08:50:22;;;;;;;9.73;5.95;;;;;;;24.19;44.64;100917.63;4991571;28;20209;-73
2023/06/09 08:52:50;;;;;;;7.22;6.25;;;;;;;24.37;45.90;100914.66;4987428;28;20253;-72
2023/06/09 08:55:16;;;;;;;12.25;6.40;;;;;;;24.53;45.54;100918.97;4986004;28;20209;-73
2023/06/09 08:57:43;;;;;;;10.30;6.22;;;;;;;24.70;47.14;100917.19;4991562;28;20212;-72
2023/06/09 09:00:11;;;;;;;7.15;5.60;;;;;;;24.89;43.72;100919.19;4984392;28;20215;-73
2023/06/09 09:02:38;;;;;;;7.15;6.00;;;;;;;25.11;43.69;100914.13;4988281;28;20210;-73
2023/06/09 09:05:05;;;;;;;6.97;5.70;;;;;;;25.27;44.40;100920.41;4993570;28;20228;-72
2023/06/09 09:07:31;;;;;;;6.68;5.55;;;;;;;25.44;43.70;100926.63;4989612;28;20211;-74
2023/06/09 09:09:59;;;;;;;9.60;5.30;;;;;;;25.63;41.39;100920.44;4990910;28;20285;-73
2023/06/09 09:12:25;;;;;;;6.35;5.75;;;;;;;25.78;40.27;100911.59;4993263;28;20248;-72
2023/06/09 09:14:52;;;;;;;7.05;5.65;;;;;;;25.95;39.31;100915.13;4992377;28;20209;-73
2023/06/09 09:17:20;;;;;;;8.68;5.28;;;;;;;26.11;39.53;100915.16;4987871;28;20285;-73
2023/06/09 09:19:48;;;;;;;6.53;5.03;;;;;;;26.28;38.47;100917.44;4990431;28;20193;-73
2023/06/09 09:22:15;;;;;;;6.00;4.13;;;;;;;26.42;39.64;100935.28;4991209;28;20201;-73
2023/06/09 09:24:44;;;;;;;6.07;4.85;;;;;;;26.53;41.02;100916.81;4989999;28;20205;-73
2023/06/09 09:27:18;;;;;;;6.97;4.63;;;;;;;26.71;38.47;100928.00;4995704;28;20206;-75
2023/06/09 09:29:46;;;;;;;5.70;4.90;;;;;;;26.84;41.71;100909.84;4997363;28;20200;-74
2023/06/09 09:32:13;;;;;;;5.10;4.55;;;;;;;26.98;36.47;100914.91;4992361;28;20230;-73
2023/06/09 09:34:41;;;;;;;5.05;4.45;;;;;;;27.11;37.72;100911.06;4995150;28;20203;-73
2023/06/09 09:37:11;;;;;;;6.40;4.53;;;;;;;27.20;36.73;100897.63;4993303;28;20224;-73
2023/06/09 09:39:48;;;;;;;5.20;4.07;;;;;;;27.33;37.54;100909.28;4989408;28;20284;-73
2023/06/09 09:42:15;;;;;;;4.78;4.28;;;;;;;27.47;38.84;100905.41;4990208;28;20186;-73
2023/06/09 09:44:43;;;;;;;5.00;4.50;;;;;;;27.65;36.19;100900.97;4992091;28;20205;-73
2023/06/09 09:47:12;;;;;;;4.72;4.22;;;;;;;27.79;37.87;100900.59;4991471;28;20206;-74
2023/06/09 09:49:50;;;;;;;5.07;4.32;;;;;;;27.96;34.98;100893.84;4987133;28;20680;-73
2023/06/09 09:52:24;;;;;;;5.03;4.00;;;;;;;28.09;34.95;100896.53;4979576;28;20272;-73
2023/06/09 09:54:54;;;;;;;4.57;4.13;;;;;;;28.18;37.28;100899.38;4994846;28;20216;-73
2023/06/09 09:57:24;;;;;;;6.60;3.95;;;;;;;28.30;34.85;100898.56;4989733;28;20201;-73
2023/06/09 09:59:53;;;;;;;5.10;4.60;;;;;;;28.43;34.64;100893.91;4987825;28;20251;-73
2023/06/09 10:02:23;;;;;;;6.30;4.15;;;;;;;28.51;34.38;100889.75;4988703;28;20566;-74
2023/06/09 10:04:52;;;;;;;4.40;4.00;;;;;;;28.59;32.91;100891.78;4988649;28;20288;-73
2023/06/09 10:07:21;;;;;;;7.30;3.88;;;;;;;28.67;34.05;100890.34;4990287;28;20194;-73
2023/06/09 10:09:50;;;;;;;6.03;3.70;;;;;;;28.75;32.96;100890.88;4993276;28;20645;-72
2023/06/09 10:12:18;;;;;;;3.60;3.30;;;;;;;28.85;34.65;100887.75;4990714;28;20227;-73
2023/06/09 10:14:45;;;;;;;4.72;3.90;;;;;;;28.88;30.09;100870.56;4992334;28;20209;-73
2023/06/09 10:17:14;;;;;;;5.88;3.90;;;;;;;28.95;32.37;100869.56;4986205;28;20207;-74
2023/06/09 10:19:41;;;;;;;3.83;3.47;;;;;;;28.97;31.74;100878.06;4986828;28;20213;-72
2023/06/09 10:22:08;;;;;;;5.57;3.75;;;;;;;29.01;30.70;100876.72;4989752;28;20205;-73
2023/06/09 10:24:35;;;;;;;5.13;4.07;;;;;;;29.04;32.28;100866.91;4993319;28;20202;-73
2023/06/09 10:27:03;;;;;;;6.47;4.05;;;;;;;29.09;28.64;100871.78;4987496;28;20258;-73
2023/06/09 10:29:29;;;;;;;4.97;4.00;;;;;;;29.04;30.17;100864.19;4993395;28;20208;-73
2023/06/09 10:31:58;;;;;;;4.80;4.30;;;;;;;29.04;30.19;100853.31;4990542;28;20213;-73
2023/06/09 10:34:27;;;;;;;5.70;4.22;;;;;;;29.08;31.14;100843.84;4991685;28;20216;-74
2023/06/09 10:36:54;;;;;;;4.35;3.92;;;;;;;29.13;27.82;100847.94;4988147;28;20193;-73
2023/06/09 10:39:22;;;;;;;7.07;4.30;;;;;;;29.14;27.28;100844.03;4993969;28;20660;-74
2023/06/09 10:41:56;;;;;;;5.40;3.67;;;;;;;29.22;29.95;100854.19;4991555;28;20572;-73
2023/06/09 10:44:35;;;;;;;4.85;3.40;;;;;;;29.27;28.86;100842.00;4993819;28;20221;-71
2023/06/09 10:47:02;;;;;;;4.10;3.70;;;;;;;29.31;28.71;100848.06;4984592;28;20307;-72
2023/06/09 10:49:39;;;;;;;4.38;3.97;;;;;;;29.41;29.64;100844.91;4990833;28;20255;-71
2023/06/09 10:52:07;;;;;;;6.07;3.78;;;;;;;29.50;27.54;100836.81;4986507;28;20291;-72
2023/06/09 10:54:35;;;;;;;5.82;4.32;;;;;;;29.64;27.17;100835.53;4987894;28;20291;-72
2023/06/09 10:57:03;;;;;;;4.72;3.92;;;;;;;29.76;28.77;100824.53;4987847;28;20197;-73
2023/06/09 11:00:11;;;;;;;4.75;4.30;;;;;;;29.76;29.62;100832.69;4983833;28;20742;-72
2023/06/09 11:02:39;;;;;;;6.43;3.80;;;;;;;29.75;26.89;100833.13;4987704;28;20275;-72
2023/06/09 11:05:07;;;;;;;7.28;4.10;;;;;;;29.66;27.41;100831.13;4991197;28;20567;-72
2023/06/09 11:07:41;;;;;;;5.72;4.07;;;;;;;29.54;29.27;100826.56;4983571;28;21143;-72
2023/06/09 11:10:38;;;;;;;4.75;4.25;;;;;;;29.29;28.13;100826.72;4987913;28;20200;-72
2023/06/09 11:13:37;;;;;;;4.85;4.15;;;;;;;29.16;29.84;100814.44;4982740;28;20296;-72
2023/06/09 11:16:04;;;;;;;4.00;3.60;;;;;;;29.10;29.37;100810.78;4991325;28;20197;-72
2023/06/09 11:18:32;;;;;;;4.00;3.60;;;;;;;29.05;30.41;100812.09;4981026;28;20563;-71
2023/06/09 11:21:22;;;;;;;5.25;4.30;;;;;;;28.92;29.06;100818.78;4982692;28;20764;-72